Impacts METAR Board
IDs:

KCLT - Charlotte/Douglas In, NC, US

Updated at: 2200 UTC 01 Mar 2021
Potential Impact None Slight Moderate High
Time 01/10Z 01/11Z 01/12Z 01/13Z 01/14Z 01/15Z 01/16Z 01/17Z 01/18Z 01/19Z 01/20Z 01/21Z 01/22Z
Temp66 66 66 60 60 61 61 63 62 64 64 65 61
Dewpt60 60 61 58 59 58 58 58 57 57 52 52 45
Altim29.83 29.86 29.88 29.92 29.93 29.98 29.94 29.89 29.90 29.91 29.93 29.96 30.02
VIS10 10 9 5 10 4 10 10 10 10 10 10 10
CIG-- 90 19 44 55 70 90 100 110 110 250 110 100
CoverSCTOVCOVCOVCOVCOVCOVCOVCOVCOVCOVCOVCOVC
FltCatVFRVFRMVFRMVFRVFRMVFRVFRVFRVFRVFRVFRVFRVFR
WX-----RA-RA BR--RA BR--------------
WDir210230260340220290200180220220240280310
WSpd15 14 9 3 3 4 5 8 10 9 7 7 13
WGst22 23 15 -- -- -- -- -- -- -- -- -- 18
Raw hourly METARs
KCLT 010952Z 21015G22KT 10SM FEW110 SCT250 19/16 A2983 RMK AO2 PK WND 20026/0903 SLP095 T01890156 $
KCLT 011052Z 23014G23KT 10SM FEW016 OVC090 19/16 A2986 RMK AO2 SLP104 T01890156 $
KCLT 011152Z 26009G15KT 9SM -RA BKN019 OVC023 19/16 A2988 RMK AO2 RAB05E23B51 SLP110 P0000 60000 T01890161 10200 20183 53011 $
KCLT 011252Z 34003KT 5SM -RA BR FEW032 BKN044 OVC050 16/14 A2992 RMK AO2 SLP125 P0011 T01560144 $
KCLT 011352Z 22003KT 10SM OVC055 16/15 A2993 RMK AO2 RAE47 SLP130 P0002 T01560150
KCLT 011452Z 29004KT 4SM RA BR FEW050 OVC070 16/14 A2998 RMK AO2 RAB1354 SLP146 P0003 60016 T01610144 53034
KCLT 011552Z 20005KT 10SM SCT070 OVC090 16/14 A2994 RMK AO2 RAE41 SLP134 P0003 T01610144
KCLT 011652Z 18008KT 10SM FEW050 OVC100 17/14 A2989 RMK AO2 RAB00E30 PRESFR SLP118 P0000 T01720144
KCLT 011752Z 22010KT 10SM FEW010 FEW070 OVC110 17/14 A2990 RMK AO2 SLP121 60019 T01670139 10189 20156 55025
KCLT 011852Z 22009KT 10SM FEW010 BKN110 OVC250 18/14 A2991 RMK AO2 PRESFR SLP121 T01780139
KCLT 011952Z COR 24007KT 10SM FEW015 SCT120 OVC250 18/11 A2993 RMK AO2 SLP129 T01780111
KCLT 012052Z 28007KT 10SM FEW015 FEW047 BKN110 OVC250 18/11 A2996 RMK AO2 SLP138 T01830111 53017
KCLT 012152Z 31013G18KT 10SM SCT041 OVC100 16/07 A3002 RMK AO2 PRESRR SLP161 T01610072



Page loaded:  22:41 UTC  |   02:41 PM Pacific  |   03:41 PM Mountain  |   04:41 PM Central  |   05:41 PM Eastern

 

ADVISORIES

FORECASTS

FORECASTS

OBSERVATIONS

USER TOOLS

ABOUT US